sensor_id;sensor_type;location;lat;lon;timestamp;pressure;altitude;pressure_sealevel;temperature;humidity
49194;BME280;35029;50.804;12.866;2023-03-26T00:01:30;96722.91;;;6.69;100.00
49194;BME280;35029;50.804;12.866;2023-03-26T00:04:04;96716.41;;;6.65;100.00
49194;BME280;35029;50.804;12.866;2023-03-26T00:06:32;96702.44;;;6.65;100.00
49194;BME280;35029;50.804;12.866;2023-03-26T00:09:01;96734.91;;;6.79;99.14
49194;BME280;35029;50.804;12.866;2023-03-26T00:11:27;96731.25;;;6.73;99.84
49194;BME280;35029;50.804;12.866;2023-03-26T00:13:54;96742.44;;;6.82;100.00
49194;BME280;35029;50.804;12.866;2023-03-26T00:16:25;96725.53;;;6.69;100.00
49194;BME280;35029;50.804;12.866;2023-03-26T00:18:50;96740.38;;;6.77;100.00
49194;BME280;35029;50.804;12.866;2023-03-26T00:21:20;96740.81;;;6.81;100.00
49194;BME280;35029;50.804;12.866;2023-03-26T00:23:46;96718.66;;;6.68;100.00
49194;BME280;35029;50.804;12.866;2023-03-26T00:26:14;96718.88;;;6.73;100.00
49194;BME280;35029;50.804;12.866;2023-03-26T00:28:41;96733.97;;;6.93;100.00
49194;BME280;35029;50.804;12.866;2023-03-26T00:31:10;96728.25;;;6.83;99.03
49194;BME280;35029;50.804;12.866;2023-03-26T00:33:36;96716.69;;;6.84;100.00
49194;BME280;35029;50.804;12.866;2023-03-26T00:36:07;96732.13;;;6.93;98.34
49194;BME280;35029;50.804;12.866;2023-03-26T00:38:39;96738.59;;;6.91;99.91
49194;BME280;35029;50.804;12.866;2023-03-26T00:41:08;96735.78;;;6.92;98.83
49194;BME280;35029;50.804;12.866;2023-03-26T00:43:56;96731.72;;;6.97;98.18
49194;BME280;35029;50.804;12.866;2023-03-26T00:46:23;96726.63;;;6.88;98.00
49194;BME280;35029;50.804;12.866;2023-03-26T00:48:49;96736.19;;;6.96;99.24
49194;BME280;35029;50.804;12.866;2023-03-26T00:51:18;96715.28;;;6.81;98.96
49194;BME280;35029;50.804;12.866;2023-03-26T00:53:47;96727.25;;;6.90;100.00
49194;BME280;35029;50.804;12.866;2023-03-26T00:56:13;96721.75;;;6.79;100.00
49194;BME280;35029;50.804;12.866;2023-03-26T00:58:38;96703.81;;;6.54;100.00
49194;BME280;35029;50.804;12.866;2023-03-26T01:01:10;96716.84;;;6.69;100.00
49194;BME280;35029;50.804;12.866;2023-03-26T01:03:39;96719.69;;;6.74;100.00
49194;BME280;35029;50.804;12.866;2023-03-26T01:06:20;96717.06;;;6.74;100.00
49194;BME280;35029;50.804;12.866;2023-03-26T01:08:48;96711.81;;;6.74;100.00
49194;BME280;35029;50.804;12.866;2023-03-26T01:11:25;96721.50;;;6.73;100.00
49194;BME280;35029;50.804;12.866;2023-03-26T01:13:55;96707.25;;;6.54;100.00
49194;BME280;35029;50.804;12.866;2023-03-26T01:18:54;96725.34;;;6.64;100.00
49194;BME280;35029;50.804;12.866;2023-03-26T01:21:26;96733.63;;;6.68;100.00
49194;BME280;35029;50.804;12.866;2023-03-26T01:23:59;96731.00;;;6.68;100.00
49194;BME280;35029;50.804;12.866;2023-03-26T01:26:54;96736.72;;;6.71;100.00
49194;BME280;35029;50.804;12.866;2023-03-26T01:29:42;96726.97;;;6.72;100.00
49194;BME280;35029;50.804;12.866;2023-03-26T01:45:45;96737.78;;;6.84;100.00
49194;BME280;35029;50.804;12.866;2023-03-26T01:48:12;96725.19;;;6.79;100.00
49194;BME280;35029;50.804;12.866;2023-03-26T01:50:38;96739.44;;;6.91;99.49
49194;BME280;35029;50.804;12.866;2023-03-26T01:53:04;96735.97;;;6.91;98.64
49194;BME280;35029;50.804;12.866;2023-03-26T01:59:00;96733.88;;;6.73;100.00
49194;BME280;35029;50.804;12.866;2023-03-26T02:01:42;96728.53;;;6.59;100.00
49194;BME280;35029;50.804;12.866;2023-03-26T02:07:07;96748.47;;;6.40;100.00
49194;BME280;35029;50.804;12.866;2023-03-26T02:09:41;96704.63;;;6.19;100.00
49194;BME280;35029;50.804;12.866;2023-03-26T02:12:12;96738.34;;;6.37;100.00
49194;BME280;35029;50.804;12.866;2023-03-26T02:14:39;96717.47;;;6.36;100.00
49194;BME280;35029;50.804;12.866;2023-03-26T02:17:06;96724.78;;;6.40;100.00
49194;BME280;35029;50.804;12.866;2023-03-26T02:19:34;96684.78;;;6.17;100.00
49194;BME280;35029;50.804;12.866;2023-03-26T02:22:00;96716.84;;;6.34;100.00
49194;BME280;35029;50.804;12.866;2023-03-26T02:24:28;96734.28;;;6.35;100.00
49194;BME280;35029;50.804;12.866;2023-03-26T02:26:56;96732.28;;;6.37;100.00
49194;BME280;35029;50.804;12.866;2023-03-26T02:29:23;96734.91;;;6.37;100.00
49194;BME280;35029;50.804;12.866;2023-03-26T02:31:51;96722.91;;;6.28;100.00
49194;BME280;35029;50.804;12.866;2023-03-26T02:34:17;96719.19;;;6.15;100.00
49194;BME280;35029;50.804;12.866;2023-03-26T02:36:51;96724.94;;;6.32;100.00
49194;BME280;35029;50.804;12.866;2023-03-26T02:39:16;96722.50;;;6.31;100.00
49194;BME280;35029;50.804;12.866;2023-03-26T02:41:49;96711.19;;;6.30;100.00
49194;BME280;35029;50.804;12.866;2023-03-26T02:44:15;96714.84;;;6.36;100.00
49194;BME280;35029;50.804;12.866;2023-03-26T02:46:58;96708.34;;;6.32;100.00
49194;BME280;35029;50.804;12.866;2023-03-26T02:49:39;96719.03;;;6.23;100.00
49194;BME280;35029;50.804;12.866;2023-03-26T02:52:05;96699.31;;;6.13;100.00
49194;BME280;35029;50.804;12.866;2023-03-26T02:54:33;96715.00;;;6.28;100.00
49194;BME280;35029;50.804;12.866;2023-03-26T02:57:17;96705.47;;;6.26;100.00
49194;BME280;35029;50.804;12.866;2023-03-26T03:00:04;96704.72;;;6.33;100.00
49194;BME280;35029;50.804;12.866;2023-03-26T03:02:48;96686.41;;;6.18;100.00
49194;BME280;35029;50.804;12.866;2023-03-26T03:05:34;96695.75;;;6.20;100.00
49194;BME280;35029;50.804;12.866;2023-03-26T03:08:23;96708.75;;;6.29;100.00
49194;BME280;35029;50.804;12.866;2023-03-26T03:11:11;96685.53;;;6.11;100.00
49194;BME280;35029;50.804;12.866;2023-03-26T03:13:41;96697.97;;;6.23;100.00
49194;BME280;35029;50.804;12.866;2023-03-26T03:16:08;96702.41;;;6.23;100.00
49194;BME280;35029;50.804;12.866;2023-03-26T03:18:33;96692.50;;;6.25;100.00
49194;BME280;35029;50.804;12.866;2023-03-26T03:21:01;96701.44;;;6.31;100.00
49194;BME280;35029;50.804;12.866;2023-03-26T03:23:27;96688.28;;;6.31;100.00
49194;BME280;35029;50.804;12.866;2023-03-26T03:26:03;96706.00;;;6.43;100.00
49194;BME280;35029;50.804;12.866;2023-03-26T03:28:32;96698.66;;;6.39;100.00
49194;BME280;35029;50.804;12.866;2023-03-26T03:30:57;96686.84;;;6.28;100.00
49194;BME280;35029;50.804;12.866;2023-03-26T03:33:31;96704.75;;;6.46;100.00
49194;BME280;35029;50.804;12.866;2023-03-26T03:35:57;96710.47;;;6.50;100.00
49194;BME280;35029;50.804;12.866;2023-03-26T03:38:26;96708.22;;;6.47;100.00
49194;BME280;35029;50.804;12.866;2023-03-26T03:40:53;96713.47;;;6.40;100.00
49194;BME280;35029;50.804;12.866;2023-03-26T03:43:22;96711.22;;;6.37;100.00
49194;BME280;35029;50.804;12.866;2023-03-26T03:46:01;96714.81;;;6.29;100.00
49194;BME280;35029;50.804;12.866;2023-03-26T03:48:41;96705.03;;;6.16;100.00
49194;BME280;35029;50.804;12.866;2023-03-26T03:51:16;96705.03;;;6.16;100.00
49194;BME280;35029;50.804;12.866;2023-03-26T03:53:57;96663.19;;;6.00;100.00
49194;BME280;35029;50.804;12.866;2023-03-26T03:56:42;96691.88;;;6.16;100.00
49194;BME280;35029;50.804;12.866;2023-03-26T03:59:10;96696.25;;;6.09;100.00
49194;BME280;35029;50.804;12.866;2023-03-26T04:01:37;96692.63;;;6.10;100.00
49194;BME280;35029;50.804;12.866;2023-03-26T04:04:10;96690.75;;;6.04;100.00
49194;BME280;35029;50.804;12.866;2023-03-26T04:06:50;96689.19;;;6.09;100.00
49194;BME280;35029;50.804;12.866;2023-03-26T04:09:17;96694.88;;;6.13;100.00
49194;BME280;35029;50.804;12.866;2023-03-26T04:11:45;96681.84;;;6.05;100.00
49194;BME280;35029;50.804;12.866;2023-03-26T04:14:29;96693.47;;;6.17;100.00
49194;BME280;35029;50.804;12.866;2023-03-26T04:16:59;96665.84;;;6.00;100.00
49194;BME280;35029;50.804;12.866;2023-03-26T04:19:28;96687.16;;;6.12;100.00
49194;BME280;35029;50.804;12.866;2023-03-26T04:21:53;96690.47;;;6.20;100.00
49194;BME280;35029;50.804;12.866;2023-03-26T04:24:20;96695.75;;;6.20;100.00
49194;BME280;35029;50.804;12.866;2023-03-26T04:27:15;96683.16;;;6.16;100.00
49194;BME280;35029;50.804;12.866;2023-03-26T04:29:45;96683.19;;;6.22;100.00
49194;BME280;35029;50.804;12.866;2023-03-26T04:32:21;96694.91;;;6.20;100.00
49194;BME280;35029;50.804;12.866;2023-03-26T04:34:49;96689.84;;;6.18;100.00
49194;BME280;35029;50.804;12.866;2023-03-26T04:37:34;96684.97;;;6.15;100.00
49194;BME280;35029;50.804;12.866;2023-03-26T04:40:13;96687.22;;;6.18;100.00
49194;BME280;35029;50.804;12.866;2023-03-26T04:43:12;96672.81;;;6.14;100.00
49194;BME280;35029;50.804;12.866;2023-03-26T04:45:50;96677.69;;;6.17;100.00
49194;BME280;35029;50.804;12.866;2023-03-26T04:48:18;96678.34;;;6.26;100.00
49194;BME280;35029;50.804;12.866;2023-03-26T04:50:45;96677.91;;;6.22;100.00
49194;BME280;35029;50.804;12.866;2023-03-26T04:53:17;96689.69;;;6.26;100.00
49194;BME280;35029;50.804;12.866;2023-03-26T04:56:19;96684.66;;;6.32;100.00
49194;BME280;35029;50.804;12.866;2023-03-26T04:59:17;96692.78;;;6.37;100.00
49194;BME280;35029;50.804;12.866;2023-03-26T05:01:43;96700.28;;;6.40;100.00
49194;BME280;35029;50.804;12.866;2023-03-26T05:04:13;96699.81;;;6.30;100.00
49194;BME280;35029;50.804;12.866;2023-03-26T05:06:42;96688.28;;;6.31;100.00
49194;BME280;35029;50.804;12.866;2023-03-26T05:09:28;96697.63;;;6.33;100.00
49194;BME280;35029;50.804;12.866;2023-03-26T05:12:12;96689.25;;;6.23;100.00
49194;BME280;35029;50.804;12.866;2023-03-26T05:15:10;96694.72;;;6.21;100.00
49194;BME280;35029;50.804;12.866;2023-03-26T05:17:49;96696.78;;;6.26;100.00
49194;BME280;35029;50.804;12.866;2023-03-26T05:20:28;96692.72;;;6.23;100.00
49194;BME280;35029;50.804;12.866;2023-03-26T05:22:55;96703.84;;;6.25;100.00
49194;BME280;35029;50.804;12.866;2023-03-26T05:25:27;96687.69;;;6.29;100.00
49194;BME280;35029;50.804;12.866;2023-03-26T05:27:53;96694.56;;;6.30;100.00
49194;BME280;35029;50.804;12.866;2023-03-26T05:30:22;96683.22;;;6.29;100.00
49194;BME280;35029;50.804;12.866;2023-03-26T05:32:53;96688.94;;;6.33;100.00
49194;BME280;35029;50.804;12.866;2023-03-26T05:35:24;96671.41;;;6.18;100.00
49194;BME280;35029;50.804;12.866;2023-03-26T05:37:49;96679.56;;;6.23;100.00
49194;BME280;35029;50.804;12.866;2023-03-26T05:40:20;96693.16;;;6.34;100.00
49194;BME280;35029;50.804;12.866;2023-03-26T05:42:50;96682.44;;;6.29;100.00
49194;BME280;35029;50.804;12.866;2023-03-26T05:45:27;96695.59;;;6.29;100.00
49194;BME280;35029;50.804;12.866;2023-03-26T05:47:54;96699.84;;;6.36;100.00
49194;BME280;35029;50.804;12.866;2023-03-26T05:50:23;96693.84;;;6.42;100.00
49194;BME280;35029;50.804;12.866;2023-03-26T05:52:50;96688.97;;;6.46;100.00
49194;BME280;35029;50.804;12.866;2023-03-26T05:55:34;96680.06;;;6.47;100.00
49194;BME280;35029;50.804;12.866;2023-03-26T05:58:18;96684.31;;;6.41;100.00
49194;BME280;35029;50.804;12.866;2023-03-26T06:01:08;96673.38;;;6.45;100.00
49194;BME280;35029;50.804;12.866;2023-03-26T06:03:54;96674.59;;;6.49;100.00
49194;BME280;35029;50.804;12.866;2023-03-26T06:06:23;96674.41;;;6.50;100.00
49194;BME280;35029;50.804;12.866;2023-03-26T06:08:54;96668.97;;;6.52;100.00
49194;BME280;35029;50.804;12.866;2023-03-26T06:11:19;96664.72;;;6.51;100.00
49194;BME280;35029;50.804;12.866;2023-03-26T06:13:46;96665.28;;;6.46;100.00
49194;BME280;35029;50.804;12.866;2023-03-26T06:16:13;96663.06;;;6.50;100.00
49194;BME280;35029;50.804;12.866;2023-03-26T06:18:46;96665.09;;;6.54;100.00
49194;BME280;35029;50.804;12.866;2023-03-26T06:21:37;96664.28;;;6.47;100.00
49194;BME280;35029;50.804;12.866;2023-03-26T06:24:16;96655.81;;;6.52;100.00
49194;BME280;35029;50.804;12.866;2023-03-26T06:27:04;96658.25;;;6.53;100.00
49194;BME280;35029;50.804;12.866;2023-03-26T06:29:53;96649.31;;;6.54;100.00
49194;BME280;35029;50.804;12.866;2023-03-26T06:32:37;96660.88;;;6.53;100.00
49194;BME280;35029;50.804;12.866;2023-03-26T06:35:13;96625.97;;;6.38;100.00
49194;BME280;35029;50.804;12.866;2023-03-26T06:37:39;96655.63;;;6.60;100.00
49194;BME280;35029;50.804;12.866;2023-03-26T06:40:06;96657.84;;;6.56;100.00
49194;BME280;35029;50.804;12.866;2023-03-26T06:42:47;96641.84;;;6.58;100.00
49194;BME280;35029;50.804;12.866;2023-03-26T06:45:37;96658.69;;;6.70;100.00
49194;BME280;35029;50.804;12.866;2023-03-26T06:48:23;96647.34;;;6.63;100.00
49194;BME280;35029;50.804;12.866;2023-03-26T06:51:07;96654.88;;;6.73;100.00
49194;BME280;35029;50.804;12.866;2023-03-26T06:53:52;96659.72;;;6.76;100.00
49194;BME280;35029;50.804;12.866;2023-03-26T06:56:57;96661.19;;;6.85;100.00
49194;BME280;35029;50.804;12.866;2023-03-26T06:59:47;96648.44;;;6.96;100.00
49194;BME280;35029;50.804;12.866;2023-03-26T07:02:31;96643.97;;;6.96;100.00
49194;BME280;35029;50.804;12.866;2023-03-26T07:05:26;96653.94;;;7.14;100.00
49194;BME280;35029;50.804;12.866;2023-03-26T07:08:29;96656.00;;;7.25;100.00
49194;BME280;35029;50.804;12.866;2023-03-26T07:11:31;96650.91;;;7.24;100.00
49194;BME280;35029;50.804;12.866;2023-03-26T07:14:15;96644.84;;;7.30;100.00
49194;BME280;35029;50.804;12.866;2023-03-26T07:16:46;96644.25;;;7.35;100.00
49194;BME280;35029;50.804;12.866;2023-03-26T07:19:31;96637.53;;;7.39;100.00
49194;BME280;35029;50.804;12.866;2023-03-26T07:22:00;96631.28;;;7.40;100.00
49194;BME280;35029;50.804;12.866;2023-03-26T07:24:55;96638.59;;;7.38;100.00
49194;BME280;35029;50.804;12.866;2023-03-26T07:30:52;96644.66;;;7.52;100.00
49194;BME280;35029;50.804;12.866;2023-03-26T07:33:38;96636.13;;;7.56;99.61
49194;BME280;35029;50.804;12.866;2023-03-26T07:43:05;96630.28;;;7.61;100.00
49194;BME280;35029;50.804;12.866;2023-03-26T07:45:55;96629.44;;;7.54;99.30
49194;BME280;35029;50.804;12.866;2023-03-26T07:48:26;96634.50;;;7.62;99.30
49194;BME280;35029;50.804;12.866;2023-03-26T07:51:14;96622.94;;;7.70;98.33
49194;BME280;35029;50.804;12.866;2023-03-26T07:54:10;96617.66;;;7.90;96.96
49194;BME280;35029;50.804;12.866;2023-03-26T07:57:09;96621.69;;;7.99;96.12
49194;BME280;35029;50.804;12.866;2023-03-26T08:00:41;96614.78;;;8.05;96.91
49194;BME280;35029;50.804;12.866;2023-03-26T08:06:34;96618.16;;;8.25;95.42
49194;BME280;35029;50.804;12.866;2023-03-26T08:20:49;96605.41;;;8.22;91.59
49194;BME280;35029;50.804;12.866;2023-03-26T08:28:25;96604.06;;;8.52;90.61
49194;BME280;35029;50.804;12.866;2023-03-26T08:30:53;96604.28;;;8.50;90.44
49194;BME280;35029;50.804;12.866;2023-03-26T08:33:20;96599.44;;;8.40;88.70
49194;BME280;35029;50.804;12.866;2023-03-26T08:35:48;96599.41;;;8.54;88.72
49194;BME280;35029;50.804;12.866;2023-03-26T08:38:17;96590.28;;;8.50;87.18
49194;BME280;35029;50.804;12.866;2023-03-26T09:27:33;96554.03;;;10.27;74.30
49194;BME280;35029;50.804;12.866;2023-03-26T09:35:51;96547.38;;;10.85;71.27
49194;BME280;35029;50.804;12.866;2023-03-26T09:41:35;96533.97;;;10.68;68.52
49194;BME280;35029;50.804;12.866;2023-03-26T09:44:27;96528.06;;;10.96;70.59
49194;BME280;35029;50.804;12.866;2023-03-26T09:47:06;96528.97;;;11.02;67.97
49194;BME280;35029;50.804;12.866;2023-03-26T09:49:52;96518.09;;;10.80;67.09
49194;BME280;35029;50.804;12.866;2023-03-26T09:52:56;96510.97;;;10.92;65.45
49194;BME280;35029;50.804;12.866;2023-03-26T10:12:43;96483.88;;;10.48;63.26
49194;BME280;35029;50.804;12.866;2023-03-26T10:17:55;96468.31;;;10.82;62.30
49194;BME280;35029;50.804;12.866;2023-03-26T10:23:19;96452.59;;;10.57;60.66
49194;BME280;35029;50.804;12.866;2023-03-26T10:28:42;96454.19;;;10.46;62.15
49194;BME280;35029;50.804;12.866;2023-03-26T10:34:07;96460.03;;;10.36;62.96
49194;BME280;35029;50.804;12.866;2023-03-26T10:37:09;96466.25;;;10.42;65.20
49194;BME280;35029;50.804;12.866;2023-03-26T10:47:55;96445.56;;;10.62;66.10
49194;BME280;35029;50.804;12.866;2023-03-26T10:50:51;96433.38;;;10.73;63.92
49194;BME280;35029;50.804;12.866;2023-03-26T10:53:35;96432.34;;;11.33;60.04
49194;BME280;35029;50.804;12.866;2023-03-26T10:56:25;96441.47;;;11.49;60.19
49194;BME280;35029;50.804;12.866;2023-03-26T10:58:53;96400.34;;;11.64;61.09
49194;BME280;35029;50.804;12.866;2023-03-26T11:01:34;96423.44;;;11.52;58.24
49194;BME280;35029;50.804;12.866;2023-03-26T11:12:11;96420.50;;;11.01;60.75
49194;BME280;35029;50.804;12.866;2023-03-26T11:14:59;96425.50;;;10.55;60.17
49194;BME280;35029;50.804;12.866;2023-03-26T11:17:42;96405.00;;;10.62;61.86
49194;BME280;35029;50.804;12.866;2023-03-26T11:21:03;96405.63;;;10.99;61.82
49194;BME280;35029;50.804;12.866;2023-03-26T11:23:40;96402.97;;;10.76;60.88
49194;BME280;35029;50.804;12.866;2023-03-26T11:32:09;96414.31;;;10.22;62.32
49194;BME280;35029;50.804;12.866;2023-03-26T11:34:40;96408.88;;;10.36;63.78
49194;BME280;35029;50.804;12.866;2023-03-26T11:37:15;96415.78;;;10.37;62.00
49194;BME280;35029;50.804;12.866;2023-03-26T11:39:48;96397.88;;;10.32;61.00
49194;BME280;35029;50.804;12.866;2023-03-26T11:42:16;96392.34;;;10.22;61.95
49194;BME280;35029;50.804;12.866;2023-03-26T11:45:04;96412.81;;;10.45;62.18
49194;BME280;35029;50.804;12.866;2023-03-26T11:47:38;96406.97;;;10.55;62.49
49194;BME280;35029;50.804;12.866;2023-03-26T11:50:14;96408.81;;;10.54;62.60
49194;BME280;35029;50.804;12.866;2023-03-26T11:52:41;96413.50;;;10.52;62.73
49194;BME280;35029;50.804;12.866;2023-03-26T11:55:10;96410.88;;;10.52;63.17
49194;BME280;35029;50.804;12.866;2023-03-26T11:57:39;96413.19;;;10.48;62.84
49194;BME280;35029;50.804;12.866;2023-03-26T12:00:13;96413.84;;;10.44;63.68
49194;BME280;35029;50.804;12.866;2023-03-26T12:02:44;96400.28;;;10.22;63.63
49194;BME280;35029;50.804;12.866;2023-03-26T12:05:20;96408.88;;;10.36;64.22
49194;BME280;35029;50.804;12.866;2023-03-26T12:07:57;96403.19;;;10.32;63.38
49194;BME280;35029;50.804;12.866;2023-03-26T12:13:00;96391.19;;;10.18;64.40
49194;BME280;35029;50.804;12.866;2023-03-26T12:15:27;96399.31;;;10.04;63.15
49194;BME280;35029;50.804;12.866;2023-03-26T12:17:56;96346.06;;;9.82;64.57
49194;BME280;35029;50.804;12.866;2023-03-26T12:22:54;96387.81;;;10.10;67.30
49194;BME280;35029;50.804;12.866;2023-03-26T12:25:37;96392.34;;;10.22;68.18
49194;BME280;35029;50.804;12.866;2023-03-26T12:30:49;96396.09;;;10.14;66.51
49194;BME280;35029;50.804;12.866;2023-03-26T12:33:26;96392.63;;;10.02;68.45
49194;BME280;35029;50.804;12.866;2023-03-26T12:35:53;96387.03;;;9.61;71.90
49194;BME280;35029;50.804;12.866;2023-03-26T12:43:35;96413.56;;;9.17;78.74
49194;BME280;35029;50.804;12.866;2023-03-26T12:46:09;96395.72;;;9.12;81.19
49194;BME280;35029;50.804;12.866;2023-03-26T12:48:43;96410.13;;;8.91;83.96
49194;BME280;35029;50.804;12.866;2023-03-26T13:10:34;96395.28;;;8.72;98.26
49194;BME280;35029;50.804;12.866;2023-03-26T13:15:51;96398.94;;;8.71;98.27
49194;BME280;35029;50.804;12.866;2023-03-26T13:18:32;96403.88;;;8.67;97.40
49194;BME280;35029;50.804;12.866;2023-03-26T13:24:00;96397.28;;;8.51;99.22
49194;BME280;35029;50.804;12.866;2023-03-26T13:29:24;96384.50;;;8.48;100.00
49194;BME280;35029;50.804;12.866;2023-03-26T13:32:05;96398.75;;;8.40;100.00
49194;BME280;35029;50.804;12.866;2023-03-26T13:34:48;96392.72;;;8.33;100.00
49194;BME280;35029;50.804;12.866;2023-03-26T13:48:13;96398.63;;;7.51;100.00
49194;BME280;35029;50.804;12.866;2023-03-26T13:50:43;96389.47;;;7.54;100.00
49194;BME280;35029;50.804;12.866;2023-03-26T13:53:17;96395.56;;;7.54;100.00
49194;BME280;35029;50.804;12.866;2023-03-26T13:55:55;96387.91;;;7.46;100.00
49194;BME280;35029;50.804;12.866;2023-03-26T13:58:37;96383.22;;;7.41;100.00
49194;BME280;35029;50.804;12.866;2023-03-26T14:01:12;96384.03;;;7.49;100.00
49194;BME280;35029;50.804;12.866;2023-03-26T14:04:01;96373.50;;;7.42;100.00
49194;BME280;35029;50.804;12.866;2023-03-26T14:09:19;96371.09;;;7.40;100.00
49194;BME280;35029;50.804;12.866;2023-03-26T14:14:25;96362.31;;;7.53;100.00
49194;BME280;35029;50.804;12.866;2023-03-26T14:16:59;96362.31;;;7.47;100.00
49194;BME280;35029;50.804;12.866;2023-03-26T14:19:46;96364.16;;;7.46;100.00
49194;BME280;35029;50.804;12.866;2023-03-26T14:41:52;96325.34;;;7.60;100.00
49194;BME280;35029;50.804;12.866;2023-03-26T14:47:12;96320.00;;;7.73;100.00
49194;BME280;35029;50.804;12.866;2023-03-26T14:52:45;96323.28;;;7.62;100.00
49194;BME280;35029;50.804;12.866;2023-03-26T14:55:12;96310.69;;;7.71;100.00
49194;BME280;35029;50.804;12.866;2023-03-26T15:38:28;96294.28;;;7.62;100.00
49194;BME280;35029;50.804;12.866;2023-03-26T15:44:28;96282.00;;;7.49;100.00
49194;BME280;35029;50.804;12.866;2023-03-26T15:46:58;96296.41;;;7.47;100.00
49194;BME280;35029;50.804;12.866;2023-03-26T15:49:34;96291.34;;;7.45;100.00
49194;BME280;35029;50.804;12.866;2023-03-26T15:57:30;96285.13;;;7.33;100.00
49194;BME280;35029;50.804;12.866;2023-03-26T16:00:20;96281.06;;;7.37;100.00
49194;BME280;35029;50.804;12.866;2023-03-26T16:11:08;96272.13;;;7.38;100.00
49194;BME280;35029;50.804;12.866;2023-03-26T16:13:42;96272.72;;;7.40;100.00
49194;BME280;35029;50.804;12.866;2023-03-26T16:34:48;96253.97;;;7.23;100.00
49194;BME280;35029;50.804;12.866;2023-03-26T16:37:35;96264.72;;;7.21;100.00
49194;BME280;35029;50.804;12.866;2023-03-26T16:45:43;96267.47;;;7.33;100.00
49194;BME280;35029;50.804;12.866;2023-03-26T16:48:28;96259.56;;;7.33;100.00
49194;BME280;35029;50.804;12.866;2023-03-26T16:51:04;96264.47;;;7.30;100.00
49194;BME280;35029;50.804;12.866;2023-03-26T16:53:44;96259.44;;;7.21;100.00
49194;BME280;35029;50.804;12.866;2023-03-26T16:56:32;96274.81;;;7.31;100.00
49194;BME280;35029;50.804;12.866;2023-03-26T16:59:07;96258.56;;;7.34;100.00
49194;BME280;35029;50.804;12.866;2023-03-26T17:01:45;96265.66;;;7.34;100.00
49194;BME280;35029;50.804;12.866;2023-03-26T17:04:19;96267.50;;;7.26;100.00
49194;BME280;35029;50.804;12.866;2023-03-26T17:13:05;96264.97;;;7.13;100.00
49194;BME280;35029;50.804;12.866;2023-03-26T17:20:38;96277.34;;;6.99;100.00
49194;BME280;35029;50.804;12.866;2023-03-26T17:32:12;96286.53;;;6.90;100.00
49194;BME280;35029;50.804;12.866;2023-03-26T17:42:27;96285.69;;;6.89;100.00
49194;BME280;35029;50.804;12.866;2023-03-26T17:45:00;96281.06;;;6.91;100.00
49194;BME280;35029;50.804;12.866;2023-03-26T17:48:09;96285.13;;;6.87;100.00
49194;BME280;35029;50.804;12.866;2023-03-26T17:51:03;96273.97;;;6.79;100.00
49194;BME280;35029;50.804;12.866;2023-03-26T17:53:33;96289.19;;;6.83;100.00
49194;BME280;35029;50.804;12.866;2023-03-26T17:56:03;96289.56;;;6.80;100.00
49194;BME280;35029;50.804;12.866;2023-03-26T17:58:34;96285.13;;;6.81;100.00
49194;BME280;35029;50.804;12.866;2023-03-26T18:03:49;96279.03;;;6.80;100.00
49194;BME280;35029;50.804;12.866;2023-03-26T18:09:28;96242.09;;;6.41;100.00
49194;BME280;35029;50.804;12.866;2023-03-26T18:17:19;96286.38;;;6.71;100.00
49194;BME280;35029;50.804;12.866;2023-03-26T18:19:47;96277.47;;;6.72;100.00
49194;BME280;35029;50.804;12.866;2023-03-26T18:22:19;96275.63;;;6.73;100.00
49194;BME280;35029;50.804;12.866;2023-03-26T18:24:45;96278.66;;;6.76;100.00
49194;BME280;35029;50.804;12.866;2023-03-26T18:27:21;96267.94;;;6.71;100.00
49194;BME280;35029;50.804;12.866;2023-03-26T18:29:57;96271.34;;;6.79;100.00
49194;BME280;35029;50.804;12.866;2023-03-26T18:32:25;96267.31;;;6.69;100.00
49194;BME280;35029;50.804;12.866;2023-03-26T18:34:58;96269.72;;;6.77;100.00
49194;BME280;35029;50.804;12.866;2023-03-26T18:37:32;96272.41;;;6.71;100.00
49194;BME280;35029;50.804;12.866;2023-03-26T18:40:09;96236.00;;;6.41;100.00
49194;BME280;35029;50.804;12.866;2023-03-26T18:42:40;96275.44;;;6.68;100.00
49194;BME280;35029;50.804;12.866;2023-03-26T18:45:32;96265.53;;;6.63;100.00
49194;BME280;35029;50.804;12.866;2023-03-26T18:48:32;96273.00;;;6.66;100.00
49194;BME280;35029;50.804;12.866;2023-03-26T18:51:24;96268.75;;;6.65;100.00
49194;BME280;35029;50.804;12.866;2023-03-26T18:53:58;96276.03;;;6.70;100.00
49194;BME280;35029;50.804;12.866;2023-03-26T18:58:56;96245.25;;;6.64;100.00
49194;BME280;35029;50.804;12.866;2023-03-26T19:01:24;96276.63;;;6.79;100.00
49194;BME280;35029;50.804;12.866;2023-03-26T19:03:56;96266.91;;;6.79;100.00
49194;BME280;35029;50.804;12.866;2023-03-26T19:06:24;96267.72;;;6.80;100.00
49194;BME280;35029;50.804;12.866;2023-03-26T19:08:51;96266.72;;;6.74;100.00
49194;BME280;35029;50.804;12.866;2023-03-26T19:11:17;96243.25;;;6.59;100.00
49194;BME280;35029;50.804;12.866;2023-03-26T19:13:43;96263.47;;;6.65;100.00
49194;BME280;35029;50.804;12.866;2023-03-26T19:16:20;96244.91;;;6.53;100.00
49194;BME280;35029;50.804;12.866;2023-03-26T19:18:48;96234.97;;;6.49;100.00
49194;BME280;35029;50.804;12.866;2023-03-26T19:21:14;96254.34;;;6.68;100.00
49194;BME280;35029;50.804;12.866;2023-03-26T19:23:43;96253.16;;;6.70;100.00
49194;BME280;35029;50.804;12.866;2023-03-26T19:26:11;96255.34;;;6.73;100.00
49194;BME280;35029;50.804;12.866;2023-03-26T19:28:41;96259.03;;;6.72;100.00
49194;BME280;35029;50.804;12.866;2023-03-26T19:37:03;96250.09;;;6.73;100.00
49194;BME280;35029;50.804;12.866;2023-03-26T19:39:45;96244.22;;;6.71;100.00
49194;BME280;35029;50.804;12.866;2023-03-26T19:42:23;96241.38;;;6.73;100.00
49194;BME280;35029;50.804;12.866;2023-03-26T19:44:51;96235.31;;;6.72;100.00